sensor_id;sensor_type;location;lat;lon;timestamp;temperature;humidity
25556;DHT22;13447;57.174;-2.112;2023-03-01T00:01:53;5.20;99.90
25556;DHT22;13447;57.174;-2.112;2023-03-01T00:04:20;5.20;99.90
25556;DHT22;13447;57.174;-2.112;2023-03-01T00:06:47;5.30;99.90
25556;DHT22;13447;57.174;-2.112;2023-03-01T00:09:14;5.20;99.90
25556;DHT22;13447;57.174;-2.112;2023-03-01T00:11:41;5.20;99.90
25556;DHT22;13447;57.174;-2.112;2023-03-01T00:14:08;5.20;99.90
25556;DHT22;13447;57.174;-2.112;2023-03-01T00:16:36;5.30;99.90
25556;DHT22;13447;57.174;-2.112;2023-03-01T00:19:05;5.20;99.90
25556;DHT22;13447;57.174;-2.112;2023-03-01T00:21:32;5.20;99.90
25556;DHT22;13447;57.174;-2.112;2023-03-01T00:24:00;5.20;99.90
25556;DHT22;13447;57.174;-2.112;2023-03-01T00:26:27;5.20;99.90
25556;DHT22;13447;57.174;-2.112;2023-03-01T00:28:56;5.30;99.90
25556;DHT22;13447;57.174;-2.112;2023-03-01T00:31:24;5.30;99.90
25556;DHT22;13447;57.174;-2.112;2023-03-01T00:33:58;5.20;99.90
25556;DHT22;13447;57.174;-2.112;2023-03-01T00:36:26;5.20;99.90
25556;DHT22;13447;57.174;-2.112;2023-03-01T00:38:54;5.20;99.90
25556;DHT22;13447;57.174;-2.112;2023-03-01T00:41:21;5.20;99.90
25556;DHT22;13447;57.174;-2.112;2023-03-01T00:43:53;5.10;99.90
25556;DHT22;13447;57.174;-2.112;2023-03-01T00:46:21;5.00;99.90
25556;DHT22;13447;57.174;-2.112;2023-03-01T00:48:48;4.90;99.90
25556;DHT22;13447;57.174;-2.112;2023-03-01T00:51:37;4.90;99.90
25556;DHT22;13447;57.174;-2.112;2023-03-01T00:54:29;4.70;99.90
25556;DHT22;13447;57.174;-2.112;2023-03-01T00:56:56;4.70;99.90
25556;DHT22;13447;57.174;-2.112;2023-03-01T00:59:23;4.60;99.90
25556;DHT22;13447;57.174;-2.112;2023-03-01T01:01:50;4.60;99.90
25556;DHT22;13447;57.174;-2.112;2023-03-01T01:04:17;4.50;99.90
25556;DHT22;13447;57.174;-2.112;2023-03-01T01:06:45;4.50;99.90
25556;DHT22;13447;57.174;-2.112;2023-03-01T01:09:13;4.50;99.90
25556;DHT22;13447;57.174;-2.112;2023-03-01T01:11:47;4.50;99.90
25556;DHT22;13447;57.174;-2.112;2023-03-01T01:14:15;4.50;99.90
25556;DHT22;13447;57.174;-2.112;2023-03-01T01:16:42;4.40;99.90
25556;DHT22;13447;57.174;-2.112;2023-03-01T01:19:32;4.30;99.90
25556;DHT22;13447;57.174;-2.112;2023-03-01T01:21:59;4.30;99.90
25556;DHT22;13447;57.174;-2.112;2023-03-01T01:24:26;4.30;99.90
25556;DHT22;13447;57.174;-2.112;2023-03-01T01:26:53;4.20;99.90
25556;DHT22;13447;57.174;-2.112;2023-03-01T01:29:19;4.20;99.90
25556;DHT22;13447;57.174;-2.112;2023-03-01T01:31:46;4.20;99.90
25556;DHT22;13447;57.174;-2.112;2023-03-01T01:34:17;4.10;99.90
25556;DHT22;13447;57.174;-2.112;2023-03-01T01:36:47;4.10;99.90
25556;DHT22;13447;57.174;-2.112;2023-03-01T01:39:14;4.00;99.90
25556;DHT22;13447;57.174;-2.112;2023-03-01T01:41:41;4.10;99.90
25556;DHT22;13447;57.174;-2.112;2023-03-01T01:44:12;4.10;99.90
25556;DHT22;13447;57.174;-2.112;2023-03-01T01:46:40;4.10;99.90
25556;DHT22;13447;57.174;-2.112;2023-03-01T01:52:02;4.00;99.90
25556;DHT22;13447;57.174;-2.112;2023-03-01T01:54:31;4.00;99.90
25556;DHT22;13447;57.174;-2.112;2023-03-01T01:57:02;4.00;99.90
25556;DHT22;13447;57.174;-2.112;2023-03-01T01:59:30;3.90;99.90
25556;DHT22;13447;57.174;-2.112;2023-03-01T02:01:59;3.90;99.90
25556;DHT22;13447;57.174;-2.112;2023-03-01T02:04:27;3.90;99.90
25556;DHT22;13447;57.174;-2.112;2023-03-01T02:06:57;3.90;99.90
25556;DHT22;13447;57.174;-2.112;2023-03-01T02:09:25;3.90;99.90
25556;DHT22;13447;57.174;-2.112;2023-03-01T02:11:53;3.80;99.90
25556;DHT22;13447;57.174;-2.112;2023-03-01T02:14:20;3.80;99.90
25556;DHT22;13447;57.174;-2.112;2023-03-01T02:16:47;3.80;99.90
25556;DHT22;13447;57.174;-2.112;2023-03-01T02:19:20;3.80;99.90
25556;DHT22;13447;57.174;-2.112;2023-03-01T02:22:00;3.80;99.90
25556;DHT22;13447;57.174;-2.112;2023-03-01T02:24:38;3.80;99.90
25556;DHT22;13447;57.174;-2.112;2023-03-01T02:27:07;3.70;99.90
25556;DHT22;13447;57.174;-2.112;2023-03-01T02:29:33;3.80;99.90
25556;DHT22;13447;57.174;-2.112;2023-03-01T02:32:00;3.80;99.90
25556;DHT22;13447;57.174;-2.112;2023-03-01T02:34:29;3.70;99.90
25556;DHT22;13447;57.174;-2.112;2023-03-01T02:37:00;3.70;99.90
25556;DHT22;13447;57.174;-2.112;2023-03-01T02:39:48;3.70;99.90
25556;DHT22;13447;57.174;-2.112;2023-03-01T02:42:16;3.80;99.90
25556;DHT22;13447;57.174;-2.112;2023-03-01T02:44:45;3.70;99.90
25556;DHT22;13447;57.174;-2.112;2023-03-01T02:47:11;3.70;99.90
25556;DHT22;13447;57.174;-2.112;2023-03-01T02:49:38;3.80;99.90
25556;DHT22;13447;57.174;-2.112;2023-03-01T02:52:16;3.80;99.90
25556;DHT22;13447;57.174;-2.112;2023-03-01T02:54:59;3.90;99.90
25556;DHT22;13447;57.174;-2.112;2023-03-01T02:57:28;4.00;1.00
25556;DHT22;13447;57.174;-2.112;2023-03-01T02:59:55;4.00;1.00
25556;DHT22;13447;57.174;-2.112;2023-03-01T03:02:29;4.10;1.00
25556;DHT22;13447;57.174;-2.112;2023-03-01T03:05:06;4.10;1.00
25556;DHT22;13447;57.174;-2.112;2023-03-01T03:07:35;4.10;1.00
25556;DHT22;13447;57.174;-2.112;2023-03-01T03:10:03;4.10;1.00
25556;DHT22;13447;57.174;-2.112;2023-03-01T03:12:31;4.10;1.00
25556;DHT22;13447;57.174;-2.112;2023-03-01T03:14:57;4.00;1.00
25556;DHT22;13447;57.174;-2.112;2023-03-01T03:17:24;4.00;1.00
25556;DHT22;13447;57.174;-2.112;2023-03-01T03:19:51;4.00;1.00
25556;DHT22;13447;57.174;-2.112;2023-03-01T03:22:18;3.90;1.00
25556;DHT22;13447;57.174;-2.112;2023-03-01T03:24:45;4.00;1.00
25556;DHT22;13447;57.174;-2.112;2023-03-01T03:27:12;4.00;1.00
25556;DHT22;13447;57.174;-2.112;2023-03-01T03:29:38;4.10;1.00
25556;DHT22;13447;57.174;-2.112;2023-03-01T03:32:05;4.00;1.00
25556;DHT22;13447;57.174;-2.112;2023-03-01T03:34:32;4.00;1.00
25556;DHT22;13447;57.174;-2.112;2023-03-01T03:36:59;4.00;1.00
25556;DHT22;13447;57.174;-2.112;2023-03-01T03:39:26;4.00;1.00
25556;DHT22;13447;57.174;-2.112;2023-03-01T03:42:01;4.00;1.00
25556;DHT22;13447;57.174;-2.112;2023-03-01T03:44:28;3.90;1.00
25556;DHT22;13447;57.174;-2.112;2023-03-01T03:46:55;3.90;1.00
25556;DHT22;13447;57.174;-2.112;2023-03-01T03:49:22;3.80;1.00
25556;DHT22;13447;57.174;-2.112;2023-03-01T03:51:48;3.80;1.00
25556;DHT22;13447;57.174;-2.112;2023-03-01T03:54:15;3.80;1.00
25556;DHT22;13447;57.174;-2.112;2023-03-01T03:56:43;3.80;1.00
25556;DHT22;13447;57.174;-2.112;2023-03-01T03:59:10;3.80;1.00
25556;DHT22;13447;57.174;-2.112;2023-03-01T04:01:37;3.80;1.00
25556;DHT22;13447;57.174;-2.112;2023-03-01T04:04:04;3.80;1.00
25556;DHT22;13447;57.174;-2.112;2023-03-01T04:06:31;3.80;1.00
25556;DHT22;13447;57.174;-2.112;2023-03-01T04:08:58;3.80;1.00
25556;DHT22;13447;57.174;-2.112;2023-03-01T04:11:28;3.90;1.00
25556;DHT22;13447;57.174;-2.112;2023-03-01T04:13:56;3.80;1.00
25556;DHT22;13447;57.174;-2.112;2023-03-01T04:16:24;3.80;1.00
25556;DHT22;13447;57.174;-2.112;2023-03-01T04:18:51;3.80;1.00
25556;DHT22;13447;57.174;-2.112;2023-03-01T04:21:20;3.90;1.00
25556;DHT22;13447;57.174;-2.112;2023-03-01T04:23:46;3.90;1.00
25556;DHT22;13447;57.174;-2.112;2023-03-01T04:26:13;4.00;1.00
25556;DHT22;13447;57.174;-2.112;2023-03-01T04:28:41;4.00;1.00
25556;DHT22;13447;57.174;-2.112;2023-03-01T04:31:12;4.00;1.00
25556;DHT22;13447;57.174;-2.112;2023-03-01T04:33:40;4.00;1.00
25556;DHT22;13447;57.174;-2.112;2023-03-01T04:36:08;4.00;1.00
25556;DHT22;13447;57.174;-2.112;2023-03-01T04:38:36;4.00;1.00
25556;DHT22;13447;57.174;-2.112;2023-03-01T04:41:07;4.00;1.00
25556;DHT22;13447;57.174;-2.112;2023-03-01T04:43:34;4.00;1.00
25556;DHT22;13447;57.174;-2.112;2023-03-01T04:46:02;4.00;1.00
25556;DHT22;13447;57.174;-2.112;2023-03-01T04:48:30;4.10;1.00
25556;DHT22;13447;57.174;-2.112;2023-03-01T04:50:58;4.10;1.00
25556;DHT22;13447;57.174;-2.112;2023-03-01T04:53:26;4.10;1.00
25556;DHT22;13447;57.174;-2.112;2023-03-01T04:55:54;4.10;1.00
25556;DHT22;13447;57.174;-2.112;2023-03-01T04:58:22;4.20;1.00
25556;DHT22;13447;57.174;-2.112;2023-03-01T05:00:49;4.20;1.00
25556;DHT22;13447;57.174;-2.112;2023-03-01T05:03:15;4.20;1.00
25556;DHT22;13447;57.174;-2.112;2023-03-01T05:05:45;4.20;1.00
25556;DHT22;13447;57.174;-2.112;2023-03-01T05:08:13;4.20;1.00
25556;DHT22;13447;57.174;-2.112;2023-03-01T05:10:45;4.20;1.00
25556;DHT22;13447;57.174;-2.112;2023-03-01T05:13:12;4.30;1.00
25556;DHT22;13447;57.174;-2.112;2023-03-01T05:15:40;4.30;1.00
25556;DHT22;13447;57.174;-2.112;2023-03-01T05:18:07;4.30;1.00
25556;DHT22;13447;57.174;-2.112;2023-03-01T05:20:37;4.30;1.00
25556;DHT22;13447;57.174;-2.112;2023-03-01T05:23:05;4.40;1.00
25556;DHT22;13447;57.174;-2.112;2023-03-01T05:25:33;4.40;1.00
25556;DHT22;13447;57.174;-2.112;2023-03-01T05:28:00;4.50;1.00
25556;DHT22;13447;57.174;-2.112;2023-03-01T05:30:33;4.50;1.00
25556;DHT22;13447;57.174;-2.112;2023-03-01T05:33:00;4.50;1.00
25556;DHT22;13447;57.174;-2.112;2023-03-01T05:35:27;4.60;1.00
25556;DHT22;13447;57.174;-2.112;2023-03-01T05:37:56;4.60;1.00
25556;DHT22;13447;57.174;-2.112;2023-03-01T05:40:23;4.60;1.00
25556;DHT22;13447;57.174;-2.112;2023-03-01T05:42:54;4.60;1.00
25556;DHT22;13447;57.174;-2.112;2023-03-01T05:45:22;4.60;1.00
25556;DHT22;13447;57.174;-2.112;2023-03-01T05:47:49;4.60;1.00
25556;DHT22;13447;57.174;-2.112;2023-03-01T05:50:20;4.70;1.00
25556;DHT22;13447;57.174;-2.112;2023-03-01T05:52:49;4.70;1.00
25556;DHT22;13447;57.174;-2.112;2023-03-01T05:55:17;4.60;1.00
25556;DHT22;13447;57.174;-2.112;2023-03-01T05:57:45;4.70;1.00
25556;DHT22;13447;57.174;-2.112;2023-03-01T06:00:13;4.70;1.00
25556;DHT22;13447;57.174;-2.112;2023-03-01T06:02:40;4.70;1.00
25556;DHT22;13447;57.174;-2.112;2023-03-01T06:05:07;4.80;1.00
25556;DHT22;13447;57.174;-2.112;2023-03-01T06:07:35;4.80;1.00
25556;DHT22;13447;57.174;-2.112;2023-03-01T06:10:02;4.80;1.00
25556;DHT22;13447;57.174;-2.112;2023-03-01T06:12:30;4.80;1.00
25556;DHT22;13447;57.174;-2.112;2023-03-01T06:14:57;4.80;1.00
25556;DHT22;13447;57.174;-2.112;2023-03-01T06:17:23;4.80;1.00
25556;DHT22;13447;57.174;-2.112;2023-03-01T06:19:50;4.90;1.00
25556;DHT22;13447;57.174;-2.112;2023-03-01T06:22:17;4.90;1.00
25556;DHT22;13447;57.174;-2.112;2023-03-01T06:24:44;4.90;1.00
25556;DHT22;13447;57.174;-2.112;2023-03-01T06:27:10;4.90;1.00
25556;DHT22;13447;57.174;-2.112;2023-03-01T06:29:37;5.00;1.00
25556;DHT22;13447;57.174;-2.112;2023-03-01T06:32:07;5.00;1.00
25556;DHT22;13447;57.174;-2.112;2023-03-01T06:34:34;5.10;1.00
25556;DHT22;13447;57.174;-2.112;2023-03-01T06:37:01;5.10;1.00
25556;DHT22;13447;57.174;-2.112;2023-03-01T06:39:32;5.00;1.00
25556;DHT22;13447;57.174;-2.112;2023-03-01T06:41:59;5.10;1.00
25556;DHT22;13447;57.174;-2.112;2023-03-01T06:44:26;5.20;1.00
25556;DHT22;13447;57.174;-2.112;2023-03-01T06:46:53;5.10;1.00
25556;DHT22;13447;57.174;-2.112;2023-03-01T06:49:20;5.30;1.00
25556;DHT22;13447;57.174;-2.112;2023-03-01T06:51:47;5.20;1.00
25556;DHT22;13447;57.174;-2.112;2023-03-01T06:54:14;5.30;1.00
25556;DHT22;13447;57.174;-2.112;2023-03-01T06:56:41;5.30;1.00
25556;DHT22;13447;57.174;-2.112;2023-03-01T06:59:08;5.30;1.00
25556;DHT22;13447;57.174;-2.112;2023-03-01T07:01:34;5.40;1.00
25556;DHT22;13447;57.174;-2.112;2023-03-01T07:04:01;5.40;1.00
25556;DHT22;13447;57.174;-2.112;2023-03-01T07:06:28;5.40;1.00
25556;DHT22;13447;57.174;-2.112;2023-03-01T07:08:55;5.30;1.00
25556;DHT22;13447;57.174;-2.112;2023-03-01T07:11:22;5.30;1.00
25556;DHT22;13447;57.174;-2.112;2023-03-01T07:13:49;5.30;1.00
25556;DHT22;13447;57.174;-2.112;2023-03-01T07:16:16;5.20;1.00
25556;DHT22;13447;57.174;-2.112;2023-03-01T07:18:43;5.20;1.00
25556;DHT22;13447;57.174;-2.112;2023-03-01T07:21:11;5.30;1.00
25556;DHT22;13447;57.174;-2.112;2023-03-01T07:23:38;5.30;1.00
25556;DHT22;13447;57.174;-2.112;2023-03-01T07:26:05;5.30;1.00
25556;DHT22;13447;57.174;-2.112;2023-03-01T07:28:32;5.30;1.00
25556;DHT22;13447;57.174;-2.112;2023-03-01T07:31:05;5.40;1.00
25556;DHT22;13447;57.174;-2.112;2023-03-01T07:33:32;5.40;1.00
25556;DHT22;13447;57.174;-2.112;2023-03-01T07:36:00;5.40;1.00
25556;DHT22;13447;57.174;-2.112;2023-03-01T07:38:27;5.30;1.00
25556;DHT22;13447;57.174;-2.112;2023-03-01T07:40:57;5.30;1.00
25556;DHT22;13447;57.174;-2.112;2023-03-01T07:43:24;5.40;1.00
25556;DHT22;13447;57.174;-2.112;2023-03-01T07:45:51;5.40;1.00
25556;DHT22;13447;57.174;-2.112;2023-03-01T07:48:18;5.50;1.00
25556;DHT22;13447;57.174;-2.112;2023-03-01T07:50:45;5.50;1.00
25556;DHT22;13447;57.174;-2.112;2023-03-01T07:53:12;5.50;1.00
25556;DHT22;13447;57.174;-2.112;2023-03-01T07:55:39;5.50;1.00
25556;DHT22;13447;57.174;-2.112;2023-03-01T07:58:05;5.60;1.00
25556;DHT22;13447;57.174;-2.112;2023-03-01T08:00:32;5.50;1.00
25556;DHT22;13447;57.174;-2.112;2023-03-01T08:02:59;5.50;1.00
25556;DHT22;13447;57.174;-2.112;2023-03-01T08:05:27;5.50;1.00
25556;DHT22;13447;57.174;-2.112;2023-03-01T08:07:54;5.50;1.00
25556;DHT22;13447;57.174;-2.112;2023-03-01T08:10:21;5.60;1.00
25556;DHT22;13447;57.174;-2.112;2023-03-01T08:12:50;5.50;1.00
25556;DHT22;13447;57.174;-2.112;2023-03-01T08:15:17;5.50;1.00
25556;DHT22;13447;57.174;-2.112;2023-03-01T08:17:45;5.60;1.00
25556;DHT22;13447;57.174;-2.112;2023-03-01T08:20:12;5.60;1.00
25556;DHT22;13447;57.174;-2.112;2023-03-01T08:22:39;5.60;1.00
25556;DHT22;13447;57.174;-2.112;2023-03-01T08:25:06;5.60;1.00
25556;DHT22;13447;57.174;-2.112;2023-03-01T08:27:33;5.60;1.00
25556;DHT22;13447;57.174;-2.112;2023-03-01T08:29:59;5.50;1.00
25556;DHT22;13447;57.174;-2.112;2023-03-01T08:32:26;5.50;1.00
25556;DHT22;13447;57.174;-2.112;2023-03-01T08:34:53;5.60;1.00
25556;DHT22;13447;57.174;-2.112;2023-03-01T08:37:20;5.60;1.00
25556;DHT22;13447;57.174;-2.112;2023-03-01T08:39:47;5.70;1.00
25556;DHT22;13447;57.174;-2.112;2023-03-01T08:42:16;5.70;1.00
25556;DHT22;13447;57.174;-2.112;2023-03-01T08:44:43;5.80;1.00
25556;DHT22;13447;57.174;-2.112;2023-03-01T08:47:14;5.80;1.00
25556;DHT22;13447;57.174;-2.112;2023-03-01T08:49:45;5.90;1.00
25556;DHT22;13447;57.174;-2.112;2023-03-01T08:52:15;6.00;1.00
25556;DHT22;13447;57.174;-2.112;2023-03-01T08:54:55;6.10;1.00
25556;DHT22;13447;57.174;-2.112;2023-03-01T08:57:32;6.20;1.00
25556;DHT22;13447;57.174;-2.112;2023-03-01T09:00:03;6.40;1.00
25556;DHT22;13447;57.174;-2.112;2023-03-01T09:02:37;6.50;1.00
25556;DHT22;13447;57.174;-2.112;2023-03-01T09:05:08;6.60;1.00
25556;DHT22;13447;57.174;-2.112;2023-03-01T09:07:49;6.60;1.00
25556;DHT22;13447;57.174;-2.112;2023-03-01T09:10:16;6.60;1.00
25556;DHT22;13447;57.174;-2.112;2023-03-01T09:12:44;6.50;1.00
25556;DHT22;13447;57.174;-2.112;2023-03-01T09:15:11;6.60;1.00
25556;DHT22;13447;57.174;-2.112;2023-03-01T09:17:38;6.60;1.00
25556;DHT22;13447;57.174;-2.112;2023-03-01T09:20:05;6.60;1.00
25556;DHT22;13447;57.174;-2.112;2023-03-01T09:22:34;6.60;1.00
25556;DHT22;13447;57.174;-2.112;2023-03-01T09:25:01;6.60;1.00
25556;DHT22;13447;57.174;-2.112;2023-03-01T09:27:28;6.60;1.00
25556;DHT22;13447;57.174;-2.112;2023-03-01T09:29:55;6.50;1.00
25556;DHT22;13447;57.174;-2.112;2023-03-01T09:32:23;6.50;1.00
25556;DHT22;13447;57.174;-2.112;2023-03-01T09:34:49;6.60;1.00
25556;DHT22;13447;57.174;-2.112;2023-03-01T09:37:33;6.80;1.00
25556;DHT22;13447;57.174;-2.112;2023-03-01T09:40:08;7.30;1.00
25556;DHT22;13447;57.174;-2.112;2023-03-01T09:43:06;7.70;1.00
25556;DHT22;13447;57.174;-2.112;2023-03-01T09:46:08;7.60;1.00
25556;DHT22;13447;57.174;-2.112;2023-03-01T09:51:54;7.40;1.00
25556;DHT22;13447;57.174;-2.112;2023-03-01T09:54:49;7.50;1.00
25556;DHT22;13447;57.174;-2.112;2023-03-01T09:57:29;8.10;1.00
25556;DHT22;13447;57.174;-2.112;2023-03-01T10:00:05;8.80;1.00
25556;DHT22;13447;57.174;-2.112;2023-03-01T10:02:43;9.30;99.90
25556;DHT22;13447;57.174;-2.112;2023-03-01T10:05:27;9.90;99.90
25556;DHT22;13447;57.174;-2.112;2023-03-01T10:08:23;10.00;99.90
25556;DHT22;13447;57.174;-2.112;2023-03-01T10:10:57;9.70;99.90
25556;DHT22;13447;57.174;-2.112;2023-03-01T10:13:46;9.30;99.90
25556;DHT22;13447;57.174;-2.112;2023-03-01T10:19:02;9.00;99.90
25556;DHT22;13447;57.174;-2.112;2023-03-01T10:21:43;9.40;99.90
25556;DHT22;13447;57.174;-2.112;2023-03-01T10:24:15;9.10;99.90
25556;DHT22;13447;57.174;-2.112;2023-03-01T10:26:56;8.80;99.90
25556;DHT22;13447;57.174;-2.112;2023-03-01T10:32:16;8.40;99.90
25556;DHT22;13447;57.174;-2.112;2023-03-01T10:34:47;8.20;99.90
25556;DHT22;13447;57.174;-2.112;2023-03-01T10:37:17;8.10;99.90
25556;DHT22;13447;57.174;-2.112;2023-03-01T10:42:30;8.10;99.90
25556;DHT22;13447;57.174;-2.112;2023-03-01T10:47:26;8.00;99.90
25556;DHT22;13447;57.174;-2.112;2023-03-01T10:49:55;7.90;99.90
25556;DHT22;13447;57.174;-2.112;2023-03-01T10:52:23;7.80;99.90
25556;DHT22;13447;57.174;-2.112;2023-03-01T10:54:57;7.70;99.90
25556;DHT22;13447;57.174;-2.112;2023-03-01T10:57:32;7.60;99.90
25556;DHT22;13447;57.174;-2.112;2023-03-01T11:02:48;7.50;99.90
25556;DHT22;13447;57.174;-2.112;2023-03-01T11:05:21;7.30;99.90
25556;DHT22;13447;57.174;-2.112;2023-03-01T11:08:08;7.30;99.90
25556;DHT22;13447;57.174;-2.112;2023-03-01T11:10:42;7.30;99.90
25556;DHT22;13447;57.174;-2.112;2023-03-01T11:13:49;7.40;99.90
25556;DHT22;13447;57.174;-2.112;2023-03-01T11:16:24;7.50;99.90
25556;DHT22;13447;57.174;-2.112;2023-03-01T11:18:56;7.80;1.00
25556;DHT22;13447;57.174;-2.112;2023-03-01T11:21:25;8.00;1.00
25556;DHT22;13447;57.174;-2.112;2023-03-01T11:24:08;8.30;99.90
25556;DHT22;13447;57.174;-2.112;2023-03-01T11:26:38;8.70;1.00
25556;DHT22;13447;57.174;-2.112;2023-03-01T11:32:07;8.70;99.90
25556;DHT22;13447;57.174;-2.112;2023-03-01T11:37:49;8.40;99.90
25556;DHT22;13447;57.174;-2.112;2023-03-01T11:40:39;8.60;99.90
25556;DHT22;13447;57.174;-2.112;2023-03-01T11:43:15;8.70;99.90
25556;DHT22;13447;57.174;-2.112;2023-03-01T11:51:22;8.70;99.90
25556;DHT22;13447;57.174;-2.112;2023-03-01T11:56:50;8.40;99.90
25556;DHT22;13447;57.174;-2.112;2023-03-01T12:02:34;8.00;99.90
25556;DHT22;13447;57.174;-2.112;2023-03-01T12:10:52;7.80;99.90
25556;DHT22;13447;57.174;-2.112;2023-03-01T12:15:53;7.90;99.90
25556;DHT22;13447;57.174;-2.112;2023-03-01T12:21:15;7.90;99.90
25556;DHT22;13447;57.174;-2.112;2023-03-01T12:23:58;7.90;99.90
25556;DHT22;13447;57.174;-2.112;2023-03-01T12:29:31;7.80;99.90
25556;DHT22;13447;57.174;-2.112;2023-03-01T12:35:34;7.80;99.90
25556;DHT22;13447;57.174;-2.112;2023-03-01T12:52:17;8.50;99.90
25556;DHT22;13447;57.174;-2.112;2023-03-01T12:58:00;8.80;99.90
25556;DHT22;13447;57.174;-2.112;2023-03-01T13:00:38;8.90;99.90
25556;DHT22;13447;57.174;-2.112;2023-03-01T13:08:25;9.00;99.90
25556;DHT22;13447;57.174;-2.112;2023-03-01T13:11:20;9.00;99.90
25556;DHT22;13447;57.174;-2.112;2023-03-01T13:23:58;9.10;99.90
25556;DHT22;13447;57.174;-2.112;2023-03-01T13:33:33;8.80;99.90
25556;DHT22;13447;57.174;-2.112;2023-03-01T13:36:03;8.90;99.90
25556;DHT22;13447;57.174;-2.112;2023-03-01T13:38:38;8.90;99.90
25556;DHT22;13447;57.174;-2.112;2023-03-01T13:41:07;8.90;99.90
25556;DHT22;13447;57.174;-2.112;2023-03-01T13:43:37;9.00;99.90
25556;DHT22;13447;57.174;-2.112;2023-03-01T13:46:09;8.90;99.90
25556;DHT22;13447;57.174;-2.112;2023-03-01T13:48:37;8.90;99.90
25556;DHT22;13447;57.174;-2.112;2023-03-01T13:51:07;8.90;99.90
25556;DHT22;13447;57.174;-2.112;2023-03-01T13:53:36;8.90;99.90
25556;DHT22;13447;57.174;-2.112;2023-03-01T13:56:09;8.90;99.90
25556;DHT22;13447;57.174;-2.112;2023-03-01T14:01:33;8.80;99.90
25556;DHT22;13447;57.174;-2.112;2023-03-01T14:04:20;8.80;99.90
25556;DHT22;13447;57.174;-2.112;2023-03-01T14:07:13;8.80;99.90
25556;DHT22;13447;57.174;-2.112;2023-03-01T14:09:41;8.70;99.90
25556;DHT22;13447;57.174;-2.112;2023-03-01T14:17:47;8.60;99.90
25556;DHT22;13447;57.174;-2.112;2023-03-01T14:20:17;8.50;99.90
25556;DHT22;13447;57.174;-2.112;2023-03-01T14:22:46;8.50;99.90
25556;DHT22;13447;57.174;-2.112;2023-03-01T14:27:50;8.50;99.90
25556;DHT22;13447;57.174;-2.112;2023-03-01T14:30:19;8.50;99.90
25556;DHT22;13447;57.174;-2.112;2023-03-01T14:33:01;8.50;99.90
25556;DHT22;13447;57.174;-2.112;2023-03-01T14:35:51;8.50;99.90
25556;DHT22;13447;57.174;-2.112;2023-03-01T14:38:29;8.50;99.90
25556;DHT22;13447;57.174;-2.112;2023-03-01T14:41:24;8.60;99.90
25556;DHT22;13447;57.174;-2.112;2023-03-01T14:43:51;8.50;99.90
25556;DHT22;13447;57.174;-2.112;2023-03-01T14:46:40;8.50;99.90
25556;DHT22;13447;57.174;-2.112;2023-03-01T14:51:43;8.50;99.90
25556;DHT22;13447;57.174;-2.112;2023-03-01T14:54:24;8.50;99.90
25556;DHT22;13447;57.174;-2.112;2023-03-01T14:56:52;8.60;99.90
25556;DHT22;13447;57.174;-2.112;2023-03-01T14:59:21;8.60;99.90
25556;DHT22;13447;57.174;-2.112;2023-03-01T15:01:49;8.60;99.90
25556;DHT22;13447;57.174;-2.112;2023-03-01T15:04:18;8.60;99.90
25556;DHT22;13447;57.174;-2.112;2023-03-01T15:06:46;8.60;99.90
25556;DHT22;13447;57.174;-2.112;2023-03-01T15:09:14;8.60;99.90
25556;DHT22;13447;57.174;-2.112;2023-03-01T15:11:41;8.70;99.90
25556;DHT22;13447;57.174;-2.112;2023-03-01T15:14:26;8.80;99.90
25556;DHT22;13447;57.174;-2.112;2023-03-01T15:16:55;8.70;99.90
25556;DHT22;13447;57.174;-2.112;2023-03-01T15:19:22;8.80;99.90
25556;DHT22;13447;57.174;-2.112;2023-03-01T15:21:53;8.80;99.90
25556;DHT22;13447;57.174;-2.112;2023-03-01T15:24:38;8.90;99.90
25556;DHT22;13447;57.174;-2.112;2023-03-01T15:27:12;8.90;99.90
25556;DHT22;13447;57.174;-2.112;2023-03-01T15:29:41;8.90;99.90
25556;DHT22;13447;57.174;-2.112;2023-03-01T15:32:25;9.00;99.90
25556;DHT22;13447;57.174;-2.112;2023-03-01T15:34:53;8.90;99.90
25556;DHT22;13447;57.174;-2.112;2023-03-01T15:37:43;8.90;99.90
25556;DHT22;13447;57.174;-2.112;2023-03-01T15:40:24;8.90;99.90
25556;DHT22;13447;57.174;-2.112;2023-03-01T15:43:02;8.80;99.90
25556;DHT22;13447;57.174;-2.112;2023-03-01T15:45:32;8.80;99.90
25556;DHT22;13447;57.174;-2.112;2023-03-01T15:48:17;8.80;99.90
25556;DHT22;13447;57.174;-2.112;2023-03-01T15:50:53;8.80;99.90
25556;DHT22;13447;57.174;-2.112;2023-03-01T15:53:24;8.80;99.90
25556;DHT22;13447;57.174;-2.112;2023-03-01T15:55:51;8.80;99.90
25556;DHT22;13447;57.174;-2.112;2023-03-01T15:58:24;8.80;99.90
25556;DHT22;13447;57.174;-2.112;2023-03-01T16:01:25;8.80;99.90
25556;DHT22;13447;57.174;-2.112;2023-03-01T16:04:17;8.70;99.90
25556;DHT22;13447;57.174;-2.112;2023-03-01T16:07:04;8.70;99.90
25556;DHT22;13447;57.174;-2.112;2023-03-01T16:09:35;8.70;99.90
25556;DHT22;13447;57.174;-2.112;2023-03-01T16:12:28;8.60;99.90
25556;DHT22;13447;57.174;-2.112;2023-03-01T16:18:06;8.40;99.90
25556;DHT22;13447;57.174;-2.112;2023-03-01T16:20:37;8.40;99.90
25556;DHT22;13447;57.174;-2.112;2023-03-01T16:23:05;8.30;99.90
25556;DHT22;13447;57.174;-2.112;2023-03-01T16:25:34;8.30;99.90
25556;DHT22;13447;57.174;-2.112;2023-03-01T16:28:02;8.20;99.90
25556;DHT22;13447;57.174;-2.112;2023-03-01T16:30:35;8.20;99.90
25556;DHT22;13447;57.174;-2.112;2023-03-01T16:33:03;8.20;99.90
25556;DHT22;13447;57.174;-2.112;2023-03-01T16:35:50;8.10;99.90
25556;DHT22;13447;57.174;-2.112;2023-03-01T16:38:17;8.10;99.90
25556;DHT22;13447;57.174;-2.112;2023-03-01T16:40:48;8.10;99.90
25556;DHT22;13447;57.174;-2.112;2023-03-01T16:43:15;8.10;99.90
25556;DHT22;13447;57.174;-2.112;2023-03-01T16:45:42;8.10;99.90
25556;DHT22;13447;57.174;-2.112;2023-03-01T16:48:14;8.10;99.90
25556;DHT22;13447;57.174;-2.112;2023-03-01T16:50:57;8.00;99.90
25556;DHT22;13447;57.174;-2.112;2023-03-01T16:53:25;8.00;99.90
25556;DHT22;13447;57.174;-2.112;2023-03-01T16:56:03;8.00;99.90
25556;DHT22;13447;57.174;-2.112;2023-03-01T16:58:47;8.00;99.90
25556;DHT22;13447;57.174;-2.112;2023-03-01T17:01:15;7.90;99.90
25556;DHT22;13447;57.174;-2.112;2023-03-01T17:03:47;7.90;99.90
25556;DHT22;13447;57.174;-2.112;2023-03-01T17:06:16;7.90;99.90
25556;DHT22;13447;57.174;-2.112;2023-03-01T17:08:44;7.80;99.90
25556;DHT22;13447;57.174;-2.112;2023-03-01T17:11:15;7.80;99.90
25556;DHT22;13447;57.174;-2.112;2023-03-01T17:13:43;7.80;99.90
25556;DHT22;13447;57.174;-2.112;2023-03-01T17:16:12;7.80;99.90
25556;DHT22;13447;57.174;-2.112;2023-03-01T17:18:53;7.80;99.90
25556;DHT22;13447;57.174;-2.112;2023-03-01T17:21:24;7.70;99.90
25556;DHT22;13447;57.174;-2.112;2023-03-01T17:23:55;7.70;99.90
25556;DHT22;13447;57.174;-2.112;2023-03-01T17:26:23;7.70;99.90
25556;DHT22;13447;57.174;-2.112;2023-03-01T17:28:51;7.70;99.90
25556;DHT22;13447;57.174;-2.112;2023-03-01T17:31:18;7.70;99.90
25556;DHT22;13447;57.174;-2.112;2023-03-01T17:33:45;7.70;99.90
25556;DHT22;13447;57.174;-2.112;2023-03-01T17:36:12;7.70;99.90
25556;DHT22;13447;57.174;-2.112;2023-03-01T17:38:39;7.70;99.90
25556;DHT22;13447;57.174;-2.112;2023-03-01T17:41:06;7.70;99.90
25556;DHT22;13447;57.174;-2.112;2023-03-01T17:43:33;7.70;99.90
25556;DHT22;13447;57.174;-2.112;2023-03-01T17:46:00;7.80;99.90
25556;DHT22;13447;57.174;-2.112;2023-03-01T17:48:27;7.80;99.90
25556;DHT22;13447;57.174;-2.112;2023-03-01T17:50:54;7.80;99.90
25556;DHT22;13447;57.174;-2.112;2023-03-01T17:53:21;7.80;99.90